sensor_id;sensor_type;location;lat;lon;timestamp;P1;durP1;ratioP1;P2;durP2;ratioP2
14961;SDS011;56489;53.166;10.864;2022-09-25T00:00:58;26.15;;;17.40;;
14961;SDS011;56489;53.166;10.864;2022-09-25T00:03:26;26.05;;;16.10;;
14961;SDS011;56489;53.166;10.864;2022-09-25T00:06:04;23.67;;;15.52;;
14961;SDS011;56489;53.166;10.864;2022-09-25T00:08:33;28.27;;;16.38;;
14961;SDS011;56489;53.166;10.864;2022-09-25T00:11:05;24.67;;;14.98;;
14961;SDS011;56489;53.166;10.864;2022-09-25T00:13:43;27.08;;;16.27;;
14961;SDS011;56489;53.166;10.864;2022-09-25T00:16:12;27.50;;;16.77;;
14961;SDS011;56489;53.166;10.864;2022-09-25T00:18:41;29.38;;;17.33;;
14961;SDS011;56489;53.166;10.864;2022-09-25T00:21:27;26.88;;;16.50;;
14961;SDS011;56489;53.166;10.864;2022-09-25T00:23:56;28.75;;;17.10;;
14961;SDS011;56489;53.166;10.864;2022-09-25T00:26:26;29.58;;;17.02;;
14961;SDS011;56489;53.166;10.864;2022-09-25T00:28:54;29.75;;;17.23;;
14961;SDS011;56489;53.166;10.864;2022-09-25T00:31:22;34.92;;;17.98;;
14961;SDS011;56489;53.166;10.864;2022-09-25T00:33:50;36.45;;;19.70;;
14961;SDS011;56489;53.166;10.864;2022-09-25T00:36:18;37.13;;;19.80;;
14961;SDS011;56489;53.166;10.864;2022-09-25T00:38:45;36.03;;;18.90;;
14961;SDS011;56489;53.166;10.864;2022-09-25T00:41:19;40.97;;;20.75;;
14961;SDS011;56489;53.166;10.864;2022-09-25T00:43:48;33.40;;;19.15;;
14961;SDS011;56489;53.166;10.864;2022-09-25T00:46:17;34.53;;;19.08;;
14961;SDS011;56489;53.166;10.864;2022-09-25T00:49:13;33.58;;;18.60;;
14961;SDS011;56489;53.166;10.864;2022-09-25T00:51:47;30.42;;;16.02;;
14961;SDS011;56489;53.166;10.864;2022-09-25T00:54:30;31.55;;;17.33;;
14961;SDS011;56489;53.166;10.864;2022-09-25T00:57:03;31.95;;;16.85;;
14961;SDS011;56489;53.166;10.864;2022-09-25T00:59:34;27.73;;;15.82;;
14961;SDS011;56489;53.166;10.864;2022-09-25T01:02:04;30.33;;;18.10;;
14961;SDS011;56489;53.166;10.864;2022-09-25T01:04:33;32.45;;;17.83;;
14961;SDS011;56489;53.166;10.864;2022-09-25T01:07:03;32.88;;;19.77;;
14961;SDS011;56489;53.166;10.864;2022-09-25T01:09:30;28.63;;;17.45;;
14961;SDS011;56489;53.166;10.864;2022-09-25T01:11:57;30.00;;;19.08;;
14961;SDS011;56489;53.166;10.864;2022-09-25T01:14:24;30.85;;;18.15;;
14961;SDS011;56489;53.166;10.864;2022-09-25T01:16:58;28.15;;;16.98;;
14961;SDS011;56489;53.166;10.864;2022-09-25T01:19:43;29.02;;;17.77;;
14961;SDS011;56489;53.166;10.864;2022-09-25T01:25:27;32.28;;;17.33;;
14961;SDS011;56489;53.166;10.864;2022-09-25T01:28:08;29.60;;;16.30;;
14961;SDS011;56489;53.166;10.864;2022-09-25T01:31:03;31.20;;;17.33;;
14961;SDS011;56489;53.166;10.864;2022-09-25T01:33:49;27.15;;;16.52;;
14961;SDS011;56489;53.166;10.864;2022-09-25T01:36:25;37.20;;;18.35;;
14961;SDS011;56489;53.166;10.864;2022-09-25T01:39:30;34.85;;;18.42;;
14961;SDS011;56489;53.166;10.864;2022-09-25T01:41:55;36.55;;;18.88;;
14961;SDS011;56489;53.166;10.864;2022-09-25T01:44:31;31.23;;;17.42;;
14961;SDS011;56489;53.166;10.864;2022-09-25T01:47:11;30.40;;;17.35;;
14961;SDS011;56489;53.166;10.864;2022-09-25T01:49:45;32.97;;;16.88;;
14961;SDS011;56489;53.166;10.864;2022-09-25T01:52:21;36.90;;;17.75;;
14961;SDS011;56489;53.166;10.864;2022-09-25T01:54:57;35.65;;;17.33;;
14961;SDS011;56489;53.166;10.864;2022-09-25T01:57:38;35.75;;;18.65;;
14961;SDS011;56489;53.166;10.864;2022-09-25T02:02:39;47.08;;;20.75;;
14961;SDS011;56489;53.166;10.864;2022-09-25T02:05:18;49.08;;;21.58;;
14961;SDS011;56489;53.166;10.864;2022-09-25T02:08:00;40.63;;;19.33;;
14961;SDS011;56489;53.166;10.864;2022-09-25T02:10:35;36.97;;;17.52;;
14961;SDS011;56489;53.166;10.864;2022-09-25T02:13:11;45.40;;;19.50;;
14961;SDS011;56489;53.166;10.864;2022-09-25T02:15:43;38.63;;;17.38;;
14961;SDS011;56489;53.166;10.864;2022-09-25T02:18:18;51.25;;;19.25;;
14961;SDS011;56489;53.166;10.864;2022-09-25T02:21:13;52.65;;;20.48;;
14961;SDS011;56489;53.166;10.864;2022-09-25T02:23:55;51.35;;;21.30;;
14961;SDS011;56489;53.166;10.864;2022-09-25T02:26:31;44.88;;;20.42;;
14961;SDS011;56489;53.166;10.864;2022-09-25T02:28:59;42.92;;;19.10;;
14961;SDS011;56489;53.166;10.864;2022-09-25T02:31:28;50.97;;;20.17;;
14961;SDS011;56489;53.166;10.864;2022-09-25T02:34:01;45.85;;;18.15;;
14961;SDS011;56489;53.166;10.864;2022-09-25T02:36:29;46.97;;;19.65;;
14961;SDS011;56489;53.166;10.864;2022-09-25T02:38:57;48.22;;;19.05;;
14961;SDS011;56489;53.166;10.864;2022-09-25T02:41:48;39.65;;;16.70;;
14961;SDS011;56489;53.166;10.864;2022-09-25T02:47:23;46.40;;;19.23;;
14961;SDS011;56489;53.166;10.864;2022-09-25T02:50:22;50.10;;;20.08;;
14961;SDS011;56489;53.166;10.864;2022-09-25T02:52:58;44.22;;;18.63;;
14961;SDS011;56489;53.166;10.864;2022-09-25T02:56:02;36.35;;;18.05;;
14961;SDS011;56489;53.166;10.864;2022-09-25T02:58:36;42.33;;;19.08;;
14961;SDS011;56489;53.166;10.864;2022-09-25T03:01:08;47.33;;;19.25;;
14961;SDS011;56489;53.166;10.864;2022-09-25T03:03:38;44.45;;;18.25;;
14961;SDS011;56489;53.166;10.864;2022-09-25T03:06:06;49.70;;;20.30;;
14961;SDS011;56489;53.166;10.864;2022-09-25T03:08:35;43.85;;;18.27;;
14961;SDS011;56489;53.166;10.864;2022-09-25T03:11:08;45.47;;;18.20;;
14961;SDS011;56489;53.166;10.864;2022-09-25T03:13:42;51.85;;;20.33;;
14961;SDS011;56489;53.166;10.864;2022-09-25T03:18:36;45.03;;;19.35;;
14961;SDS011;56489;53.166;10.864;2022-09-25T03:21:03;42.10;;;18.27;;
14961;SDS011;56489;53.166;10.864;2022-09-25T03:23:30;49.00;;;20.08;;
14961;SDS011;56489;53.166;10.864;2022-09-25T03:25:57;48.58;;;19.60;;
14961;SDS011;56489;53.166;10.864;2022-09-25T03:28:24;41.92;;;18.52;;
14961;SDS011;56489;53.166;10.864;2022-09-25T03:30:59;37.28;;;16.08;;
14961;SDS011;56489;53.166;10.864;2022-09-25T03:33:29;40.88;;;18.35;;
14961;SDS011;56489;53.166;10.864;2022-09-25T03:36:10;46.78;;;20.30;;
14961;SDS011;56489;53.166;10.864;2022-09-25T03:38:42;42.33;;;18.98;;
14961;SDS011;56489;53.166;10.864;2022-09-25T03:41:11;46.67;;;18.33;;
14961;SDS011;56489;53.166;10.864;2022-09-25T03:43:40;42.00;;;18.38;;
14961;SDS011;56489;53.166;10.864;2022-09-25T03:46:10;42.67;;;19.33;;
14961;SDS011;56489;53.166;10.864;2022-09-25T03:48:38;48.20;;;20.13;;
14961;SDS011;56489;53.166;10.864;2022-09-25T03:51:06;41.00;;;18.73;;
14961;SDS011;56489;53.166;10.864;2022-09-25T03:53:34;42.88;;;18.20;;
14961;SDS011;56489;53.166;10.864;2022-09-25T03:56:02;47.50;;;19.67;;
14961;SDS011;56489;53.166;10.864;2022-09-25T03:58:32;55.55;;;20.48;;
14961;SDS011;56489;53.166;10.864;2022-09-25T04:00:59;51.50;;;21.52;;
14961;SDS011;56489;53.166;10.864;2022-09-25T04:03:27;46.45;;;21.17;;
14961;SDS011;56489;53.166;10.864;2022-09-25T04:05:56;53.47;;;21.73;;
14961;SDS011;56489;53.166;10.864;2022-09-25T04:08:25;49.53;;;21.05;;
14961;SDS011;56489;53.166;10.864;2022-09-25T04:10:53;42.28;;;19.25;;
14961;SDS011;56489;53.166;10.864;2022-09-25T04:13:26;45.13;;;18.35;;
14961;SDS011;56489;53.166;10.864;2022-09-25T04:15:59;44.17;;;19.15;;
14961;SDS011;56489;53.166;10.864;2022-09-25T04:18:27;45.85;;;20.20;;
14961;SDS011;56489;53.166;10.864;2022-09-25T04:21:00;50.00;;;19.40;;
14961;SDS011;56489;53.166;10.864;2022-09-25T04:23:29;45.53;;;19.27;;
14961;SDS011;56489;53.166;10.864;2022-09-25T04:25:57;36.65;;;17.63;;
14961;SDS011;56489;53.166;10.864;2022-09-25T04:28:24;41.53;;;17.48;;
14961;SDS011;56489;53.166;10.864;2022-09-25T04:30:51;38.63;;;16.45;;
14961;SDS011;56489;53.166;10.864;2022-09-25T04:33:18;36.80;;;17.42;;
14961;SDS011;56489;53.166;10.864;2022-09-25T04:36:04;36.67;;;16.83;;
14961;SDS011;56489;53.166;10.864;2022-09-25T04:38:31;45.70;;;17.73;;
14961;SDS011;56489;53.166;10.864;2022-09-25T04:40:58;42.92;;;18.85;;
14961;SDS011;56489;53.166;10.864;2022-09-25T04:43:30;37.67;;;17.42;;
14961;SDS011;56489;53.166;10.864;2022-09-25T04:46:04;49.65;;;19.52;;
14961;SDS011;56489;53.166;10.864;2022-09-25T04:48:32;48.80;;;19.35;;
14961;SDS011;56489;53.166;10.864;2022-09-25T04:51:01;40.40;;;19.80;;
14961;SDS011;56489;53.166;10.864;2022-09-25T04:53:29;44.40;;;19.13;;
14961;SDS011;56489;53.166;10.864;2022-09-25T04:56:00;37.60;;;18.40;;
14961;SDS011;56489;53.166;10.864;2022-09-25T04:58:28;40.05;;;18.63;;
14961;SDS011;56489;53.166;10.864;2022-09-25T05:00:54;35.08;;;16.58;;
14961;SDS011;56489;53.166;10.864;2022-09-25T05:03:26;40.22;;;16.55;;
14961;SDS011;56489;53.166;10.864;2022-09-25T05:05:52;42.60;;;18.60;;
14961;SDS011;56489;53.166;10.864;2022-09-25T05:08:19;48.60;;;19.38;;
14961;SDS011;56489;53.166;10.864;2022-09-25T05:10:48;43.28;;;18.42;;
14961;SDS011;56489;53.166;10.864;2022-09-25T05:13:15;44.17;;;19.60;;
14961;SDS011;56489;53.166;10.864;2022-09-25T05:15:41;40.63;;;16.75;;
14961;SDS011;56489;53.166;10.864;2022-09-25T05:20:41;34.92;;;17.83;;
14961;SDS011;56489;53.166;10.864;2022-09-25T05:23:08;36.80;;;17.33;;
14961;SDS011;56489;53.166;10.864;2022-09-25T05:25:35;30.83;;;16.45;;
14961;SDS011;56489;53.166;10.864;2022-09-25T05:28:02;35.70;;;15.18;;
14961;SDS011;56489;53.166;10.864;2022-09-25T05:30:29;36.45;;;16.05;;
14961;SDS011;56489;53.166;10.864;2022-09-25T05:32:58;30.02;;;15.00;;
14961;SDS011;56489;53.166;10.864;2022-09-25T05:35:26;35.67;;;15.88;;
14961;SDS011;56489;53.166;10.864;2022-09-25T05:37:54;33.50;;;17.05;;
14961;SDS011;56489;53.166;10.864;2022-09-25T05:40:21;34.42;;;16.55;;
14961;SDS011;56489;53.166;10.864;2022-09-25T05:42:49;32.53;;;15.75;;
14961;SDS011;56489;53.166;10.864;2022-09-25T05:45:17;33.55;;;16.30;;
14961;SDS011;56489;53.166;10.864;2022-09-25T05:47:45;33.60;;;16.85;;
14961;SDS011;56489;53.166;10.864;2022-09-25T05:50:13;37.70;;;17.00;;
14961;SDS011;56489;53.166;10.864;2022-09-25T05:52:41;33.25;;;16.00;;
14961;SDS011;56489;53.166;10.864;2022-09-25T05:55:09;35.67;;;16.33;;
14961;SDS011;56489;53.166;10.864;2022-09-25T05:57:36;39.05;;;16.98;;
14961;SDS011;56489;53.166;10.864;2022-09-25T06:00:07;34.63;;;16.70;;
14961;SDS011;56489;53.166;10.864;2022-09-25T06:02:38;33.75;;;15.82;;
14961;SDS011;56489;53.166;10.864;2022-09-25T06:05:04;37.53;;;17.88;;
14961;SDS011;56489;53.166;10.864;2022-09-25T06:07:31;42.45;;;18.63;;
14961;SDS011;56489;53.166;10.864;2022-09-25T06:09:58;36.78;;;16.90;;
14961;SDS011;56489;53.166;10.864;2022-09-25T06:12:27;36.33;;;18.58;;
14961;SDS011;56489;53.166;10.864;2022-09-25T06:14:54;37.03;;;17.63;;
14961;SDS011;56489;53.166;10.864;2022-09-25T06:17:21;34.58;;;16.70;;
14961;SDS011;56489;53.166;10.864;2022-09-25T06:19:48;36.40;;;17.52;;
14961;SDS011;56489;53.166;10.864;2022-09-25T06:22:14;37.88;;;17.60;;
14961;SDS011;56489;53.166;10.864;2022-09-25T06:24:41;32.25;;;17.65;;
14961;SDS011;56489;53.166;10.864;2022-09-25T06:27:08;48.25;;;19.67;;
14961;SDS011;56489;53.166;10.864;2022-09-25T06:29:35;44.58;;;19.00;;
14961;SDS011;56489;53.166;10.864;2022-09-25T06:32:02;50.25;;;21.33;;
14961;SDS011;56489;53.166;10.864;2022-09-25T06:34:29;41.58;;;18.38;;
14961;SDS011;56489;53.166;10.864;2022-09-25T06:36:56;41.58;;;20.58;;
14961;SDS011;56489;53.166;10.864;2022-09-25T06:39:25;43.63;;;20.02;;
14961;SDS011;56489;53.166;10.864;2022-09-25T06:41:52;42.25;;;20.23;;
14961;SDS011;56489;53.166;10.864;2022-09-25T06:44:19;43.08;;;19.30;;
14961;SDS011;56489;53.166;10.864;2022-09-25T06:46:48;39.55;;;18.73;;
14961;SDS011;56489;53.166;10.864;2022-09-25T06:49:15;36.55;;;18.85;;
14961;SDS011;56489;53.166;10.864;2022-09-25T06:51:42;35.85;;;18.45;;
14961;SDS011;56489;53.166;10.864;2022-09-25T06:54:09;32.58;;;17.20;;
14961;SDS011;56489;53.166;10.864;2022-09-25T06:56:36;35.35;;;17.00;;
14961;SDS011;56489;53.166;10.864;2022-09-25T06:59:03;34.20;;;17.80;;
14961;SDS011;56489;53.166;10.864;2022-09-25T07:01:30;31.65;;;18.02;;
14961;SDS011;56489;53.166;10.864;2022-09-25T07:03:56;30.25;;;16.10;;
14961;SDS011;56489;53.166;10.864;2022-09-25T07:06:24;29.67;;;16.73;;
14961;SDS011;56489;53.166;10.864;2022-09-25T07:08:56;32.72;;;17.83;;
14961;SDS011;56489;53.166;10.864;2022-09-25T07:11:23;29.75;;;17.20;;
14961;SDS011;56489;53.166;10.864;2022-09-25T07:13:52;28.88;;;16.10;;
14961;SDS011;56489;53.166;10.864;2022-09-25T07:16:23;32.92;;;18.50;;
14961;SDS011;56489;53.166;10.864;2022-09-25T07:18:52;30.90;;;17.02;;
14961;SDS011;56489;53.166;10.864;2022-09-25T07:21:20;43.67;;;19.90;;
14961;SDS011;56489;53.166;10.864;2022-09-25T07:23:50;54.20;;;21.65;;
14961;SDS011;56489;53.166;10.864;2022-09-25T07:26:18;43.67;;;20.08;;
14961;SDS011;56489;53.166;10.864;2022-09-25T07:29:00;46.90;;;21.38;;
14961;SDS011;56489;53.166;10.864;2022-09-25T07:31:30;60.83;;;24.35;;
14961;SDS011;56489;53.166;10.864;2022-09-25T07:33:58;55.03;;;22.67;;
14961;SDS011;56489;53.166;10.864;2022-09-25T07:36:30;40.10;;;20.77;;
14961;SDS011;56489;53.166;10.864;2022-09-25T07:41:25;29.17;;;17.15;;
14961;SDS011;56489;53.166;10.864;2022-09-25T07:43:55;30.45;;;18.70;;
14961;SDS011;56489;53.166;10.864;2022-09-25T07:46:43;28.13;;;16.42;;
14961;SDS011;56489;53.166;10.864;2022-09-25T07:49:11;36.33;;;18.85;;
14961;SDS011;56489;53.166;10.864;2022-09-25T07:51:38;38.35;;;19.38;;
14961;SDS011;56489;53.166;10.864;2022-09-25T07:54:05;32.95;;;19.48;;
14961;SDS011;56489;53.166;10.864;2022-09-25T07:56:32;33.67;;;21.13;;
14961;SDS011;56489;53.166;10.864;2022-09-25T07:59:00;22.95;;;15.20;;
14961;SDS011;56489;53.166;10.864;2022-09-25T08:01:26;19.80;;;14.38;;
14961;SDS011;56489;53.166;10.864;2022-09-25T08:03:53;20.00;;;14.48;;
14961;SDS011;56489;53.166;10.864;2022-09-25T08:06:20;17.55;;;13.10;;
14961;SDS011;56489;53.166;10.864;2022-09-25T08:08:47;18.15;;;13.40;;
14961;SDS011;56489;53.166;10.864;2022-09-25T08:11:14;16.67;;;12.73;;
14961;SDS011;56489;53.166;10.864;2022-09-25T08:13:42;17.70;;;12.70;;
14961;SDS011;56489;53.166;10.864;2022-09-25T08:16:16;15.27;;;12.13;;
14961;SDS011;56489;53.166;10.864;2022-09-25T08:18:45;13.43;;;10.65;;
14961;SDS011;56489;53.166;10.864;2022-09-25T08:21:14;11.90;;;10.50;;
14961;SDS011;56489;53.166;10.864;2022-09-25T08:23:43;11.23;;;9.73;;
14961;SDS011;56489;53.166;10.864;2022-09-25T08:26:15;10.23;;;9.13;;
14961;SDS011;56489;53.166;10.864;2022-09-25T08:28:42;13.05;;;10.20;;
14961;SDS011;56489;53.166;10.864;2022-09-25T08:31:10;13.50;;;9.55;;
14961;SDS011;56489;53.166;10.864;2022-09-25T08:33:37;12.27;;;8.68;;
14961;SDS011;56489;53.166;10.864;2022-09-25T08:36:05;10.45;;;8.73;;
14961;SDS011;56489;53.166;10.864;2022-09-25T08:38:32;12.50;;;9.85;;
14961;SDS011;56489;53.166;10.864;2022-09-25T08:41:45;11.27;;;8.88;;
14961;SDS011;56489;53.166;10.864;2022-09-25T08:46:46;9.98;;;7.88;;
14961;SDS011;56489;53.166;10.864;2022-09-25T08:49:46;8.27;;;6.93;;
14961;SDS011;56489;53.166;10.864;2022-09-25T08:52:33;9.00;;;7.28;;
14961;SDS011;56489;53.166;10.864;2022-09-25T08:55:01;10.07;;;8.30;;
14961;SDS011;56489;53.166;10.864;2022-09-25T08:57:31;8.82;;;7.38;;
14961;SDS011;56489;53.166;10.864;2022-09-25T09:00:15;7.60;;;6.80;;
14961;SDS011;56489;53.166;10.864;2022-09-25T09:02:52;7.97;;;7.15;;
14961;SDS011;56489;53.166;10.864;2022-09-25T09:05:21;8.50;;;7.22;;
14961;SDS011;56489;53.166;10.864;2022-09-25T09:08:05;9.75;;;7.50;;
14961;SDS011;56489;53.166;10.864;2022-09-25T09:10:42;11.57;;;9.05;;
14961;SDS011;56489;53.166;10.864;2022-09-25T09:13:27;10.93;;;7.40;;
14961;SDS011;56489;53.166;10.864;2022-09-25T09:18:28;9.27;;;7.75;;
14961;SDS011;56489;53.166;10.864;2022-09-25T09:21:02;8.30;;;7.35;;
14961;SDS011;56489;53.166;10.864;2022-09-25T09:23:40;10.27;;;7.78;;
14961;SDS011;56489;53.166;10.864;2022-09-25T09:26:28;9.35;;;8.02;;
14961;SDS011;56489;53.166;10.864;2022-09-25T09:29:15;11.55;;;9.43;;
14961;SDS011;56489;53.166;10.864;2022-09-25T09:35:11;10.55;;;7.50;;
14961;SDS011;56489;53.166;10.864;2022-09-25T09:40:44;9.30;;;7.60;;
14961;SDS011;56489;53.166;10.864;2022-09-25T09:46:04;8.68;;;6.80;;
14961;SDS011;56489;53.166;10.864;2022-09-25T09:48:50;10.35;;;8.15;;
14961;SDS011;56489;53.166;10.864;2022-09-25T09:51:40;10.45;;;8.32;;
14961;SDS011;56489;53.166;10.864;2022-09-25T09:54:14;8.25;;;6.82;;
14961;SDS011;56489;53.166;10.864;2022-09-25T09:57:01;9.77;;;7.78;;
14961;SDS011;56489;53.166;10.864;2022-09-25T09:59:41;10.82;;;8.60;;
14961;SDS011;56489;53.166;10.864;2022-09-25T10:02:57;12.35;;;7.88;;
14961;SDS011;56489;53.166;10.864;2022-09-25T10:05:03;8.60;;;7.07;;
14961;SDS011;56489;53.166;10.864;2022-09-25T10:07:35;8.20;;;6.55;;
14961;SDS011;56489;53.166;10.864;2022-09-25T10:10:10;9.27;;;6.93;;
14961;SDS011;56489;53.166;10.864;2022-09-25T10:12:49;9.38;;;7.65;;
14961;SDS011;56489;53.166;10.864;2022-09-25T10:15:29;8.38;;;7.47;;
14961;SDS011;56489;53.166;10.864;2022-09-25T10:18:04;8.45;;;7.55;;
14961;SDS011;56489;53.166;10.864;2022-09-25T10:20:38;9.02;;;8.07;;
14961;SDS011;56489;53.166;10.864;2022-09-25T10:23:15;9.50;;;8.25;;
14961;SDS011;56489;53.166;10.864;2022-09-25T10:25:57;10.02;;;7.88;;
14961;SDS011;56489;53.166;10.864;2022-09-25T10:28:25;9.48;;;7.95;;
14961;SDS011;56489;53.166;10.864;2022-09-25T10:30:57;8.48;;;7.15;;
14961;SDS011;56489;53.166;10.864;2022-09-25T10:33:29;8.02;;;7.22;;
14961;SDS011;56489;53.166;10.864;2022-09-25T10:35:56;8.43;;;7.10;;
14961;SDS011;56489;53.166;10.864;2022-09-25T10:38:38;6.82;;;6.20;;
14961;SDS011;56489;53.166;10.864;2022-09-25T10:41:13;7.95;;;6.47;;
14961;SDS011;56489;53.166;10.864;2022-09-25T10:43:49;8.55;;;7.60;;
14961;SDS011;56489;53.166;10.864;2022-09-25T10:46:25;7.50;;;6.78;;
14961;SDS011;56489;53.166;10.864;2022-09-25T10:49:15;10.18;;;8.70;;
14961;SDS011;56489;53.166;10.864;2022-09-25T10:52:03;8.00;;;7.13;;
14961;SDS011;56489;53.166;10.864;2022-09-25T10:54:33;8.43;;;7.50;;
14961;SDS011;56489;53.166;10.864;2022-09-25T10:57:52;8.75;;;7.18;;
14961;SDS011;56489;53.166;10.864;2022-09-25T11:00:05;8.77;;;7.47;;
14961;SDS011;56489;53.166;10.864;2022-09-25T11:02:44;9.65;;;8.32;;
14961;SDS011;56489;53.166;10.864;2022-09-25T11:05:17;8.18;;;7.32;;
14961;SDS011;56489;53.166;10.864;2022-09-25T11:07:48;8.02;;;6.82;;
14961;SDS011;56489;53.166;10.864;2022-09-25T11:10:21;8.02;;;7.05;;
14961;SDS011;56489;53.166;10.864;2022-09-25T11:12:53;7.85;;;7.15;;
14961;SDS011;56489;53.166;10.864;2022-09-25T11:15:22;7.22;;;6.30;;
14961;SDS011;56489;53.166;10.864;2022-09-25T11:17:52;8.02;;;6.85;;
14961;SDS011;56489;53.166;10.864;2022-09-25T11:28:31;7.78;;;6.93;;
14961;SDS011;56489;53.166;10.864;2022-09-25T11:31:12;10.02;;;8.57;;
14961;SDS011;56489;53.166;10.864;2022-09-25T11:33:51;10.20;;;8.88;;
14961;SDS011;56489;53.166;10.864;2022-09-25T11:36:45;11.68;;;8.57;;
14961;SDS011;56489;53.166;10.864;2022-09-25T11:39:25;8.95;;;7.82;;
14961;SDS011;56489;53.166;10.864;2022-09-25T11:42:17;10.25;;;8.15;;
14961;SDS011;56489;53.166;10.864;2022-09-25T11:45:17;9.07;;;7.47;;
14961;SDS011;56489;53.166;10.864;2022-09-25T11:47:55;8.80;;;7.43;;
14961;SDS011;56489;53.166;10.864;2022-09-25T11:50:36;8.80;;;7.82;;
14961;SDS011;56489;53.166;10.864;2022-09-25T11:57:07;10.55;;;8.73;;
14961;SDS011;56489;53.166;10.864;2022-09-25T12:02:23;10.38;;;8.75;;
14961;SDS011;56489;53.166;10.864;2022-09-25T12:08:03;7.97;;;7.10;;
14961;SDS011;56489;53.166;10.864;2022-09-25T12:13:42;10.65;;;8.93;;
14961;SDS011;56489;53.166;10.864;2022-09-25T12:19:26;9.57;;;7.38;;
14961;SDS011;56489;53.166;10.864;2022-09-25T12:22:11;8.50;;;7.60;;
14961;SDS011;56489;53.166;10.864;2022-09-25T12:30:24;9.00;;;8.10;;
14961;SDS011;56489;53.166;10.864;2022-09-25T12:41:23;10.35;;;8.93;;
14961;SDS011;56489;53.166;10.864;2022-09-25T12:44:02;8.68;;;7.22;;
14961;SDS011;56489;53.166;10.864;2022-09-25T12:49:38;8.13;;;7.32;;
14961;SDS011;56489;53.166;10.864;2022-09-25T12:52:11;8.02;;;7.22;;
14961;SDS011;56489;53.166;10.864;2022-09-25T12:57:24;8.30;;;7.50;;
14961;SDS011;56489;53.166;10.864;2022-09-25T13:00:05;7.57;;;6.80;;
14961;SDS011;56489;53.166;10.864;2022-09-25T13:02:53;8.40;;;7.18;;
14961;SDS011;56489;53.166;10.864;2022-09-25T13:05:32;7.05;;;6.40;;
14961;SDS011;56489;53.166;10.864;2022-09-25T13:10:50;6.35;;;5.75;;
14961;SDS011;56489;53.166;10.864;2022-09-25T13:13:27;7.78;;;6.97;;
14961;SDS011;56489;53.166;10.864;2022-09-25T13:15:58;6.80;;;6.15;;
14961;SDS011;56489;53.166;10.864;2022-09-25T13:18:28;7.38;;;6.68;;
14961;SDS011;56489;53.166;10.864;2022-09-25T13:21:20;6.05;;;5.55;;
14961;SDS011;56489;53.166;10.864;2022-09-25T13:23:55;5.53;;;4.38;;
14961;SDS011;56489;53.166;10.864;2022-09-25T13:26:23;4.82;;;4.43;;
14961;SDS011;56489;53.166;10.864;2022-09-25T13:28:55;3.85;;;3.55;;
14961;SDS011;56489;53.166;10.864;2022-09-25T13:31:30;3.50;;;3.20;;
14961;SDS011;56489;53.166;10.864;2022-09-25T13:36:30;2.63;;;2.42;;
14961;SDS011;56489;53.166;10.864;2022-09-25T13:38:58;2.40;;;2.20;;
14961;SDS011;56489;53.166;10.864;2022-09-25T13:44:46;2.80;;;2.60;;
14961;SDS011;56489;53.166;10.864;2022-09-25T13:49:51;2.70;;;2.50;;
14961;SDS011;56489;53.166;10.864;2022-09-25T14:00:25;4.05;;;3.33;;
14961;SDS011;56489;53.166;10.864;2022-09-25T14:03:01;3.20;;;3.00;;
14961;SDS011;56489;53.166;10.864;2022-09-25T14:05:29;4.35;;;3.85;;
14961;SDS011;56489;53.166;10.864;2022-09-25T14:08:12;4.22;;;3.92;;
14961;SDS011;56489;53.166;10.864;2022-09-25T14:10:45;4.47;;;4.07;;
14961;SDS011;56489;53.166;10.864;2022-09-25T14:13:15;4.80;;;4.40;;
14961;SDS011;56489;53.166;10.864;2022-09-25T14:15:44;4.90;;;4.55;;
14961;SDS011;56489;53.166;10.864;2022-09-25T14:18:15;5.32;;;4.80;;
14961;SDS011;56489;53.166;10.864;2022-09-25T14:21:14;4.75;;;4.35;;
14961;SDS011;56489;53.166;10.864;2022-09-25T14:23:48;5.78;;;4.45;;
14961;SDS011;56489;53.166;10.864;2022-09-25T14:26:20;5.28;;;4.20;;
14961;SDS011;56489;53.166;10.864;2022-09-25T14:28:51;4.95;;;4.50;;
14961;SDS011;56489;53.166;10.864;2022-09-25T14:31:36;4.57;;;4.20;;
14961;SDS011;56489;53.166;10.864;2022-09-25T14:40:21;4.25;;;3.95;;
14961;SDS011;56489;53.166;10.864;2022-09-25T14:43:03;3.03;;;2.30;;
14961;SDS011;56489;53.166;10.864;2022-09-25T14:48:42;2.30;;;2.10;;
14961;SDS011;56489;53.166;10.864;2022-09-25T14:51:19;2.40;;;2.20;;
14961;SDS011;56489;53.166;10.864;2022-09-25T14:53:52;2.25;;;1.80;;
14961;SDS011;56489;53.166;10.864;2022-09-25T14:56:22;1.88;;;1.75;;
14961;SDS011;56489;53.166;10.864;2022-09-25T14:58:53;2.20;;;2.00;;
14961;SDS011;56489;53.166;10.864;2022-09-25T15:01:26;3.25;;;1.90;;
14961;SDS011;56489;53.166;10.864;2022-09-25T15:03:59;3.40;;;2.00;;
14961;SDS011;56489;53.166;10.864;2022-09-25T15:06:35;2.58;;;1.77;;
14961;SDS011;56489;53.166;10.864;2022-09-25T15:09:26;1.80;;;1.70;;
14961;SDS011;56489;53.166;10.864;2022-09-25T15:12:23;1.38;;;1.27;;
14961;SDS011;56489;53.166;10.864;2022-09-25T15:14:57;1.70;;;1.60;;
14961;SDS011;56489;53.166;10.864;2022-09-25T15:17:57;4.50;;;2.28;;
14961;SDS011;56489;53.166;10.864;2022-09-25T15:20:30;3.15;;;1.70;;
14961;SDS011;56489;53.166;10.864;2022-09-25T15:25:32;1.73;;;1.52;;
14961;SDS011;56489;53.166;10.864;2022-09-25T15:28:05;1.60;;;1.45;;
14961;SDS011;56489;53.166;10.864;2022-09-25T15:30:34;1.42;;;1.33;;
14961;SDS011;56489;53.166;10.864;2022-09-25T15:33:33;1.63;;;1.52;;
14961;SDS011;56489;53.166;10.864;2022-09-25T15:36:16;1.20;;;1.10;;
14961;SDS011;56489;53.166;10.864;2022-09-25T15:38:52;2.67;;;1.65;;
14961;SDS011;56489;53.166;10.864;2022-09-25T15:41:20;1.83;;;1.70;;
14961;SDS011;56489;53.166;10.864;2022-09-25T15:43:49;2.58;;;1.70;;
14961;SDS011;56489;53.166;10.864;2022-09-25T15:46:27;2.95;;;1.95;;
14961;SDS011;56489;53.166;10.864;2022-09-25T15:49:02;1.90;;;1.80;;
14961;SDS011;56489;53.166;10.864;2022-09-25T15:51:31;3.83;;;1.98;;
14961;SDS011;56489;53.166;10.864;2022-09-25T15:53:59;2.60;;;2.28;;
14961;SDS011;56489;53.166;10.864;2022-09-25T15:56:37;2.95;;;2.42;;
14961;SDS011;56489;53.166;10.864;2022-09-25T15:59:16;4.13;;;2.67;;
14961;SDS011;56489;53.166;10.864;2022-09-25T16:01:43;3.17;;;2.10;;
14961;SDS011;56489;53.166;10.864;2022-09-25T16:04:29;2.80;;;2.47;;
14961;SDS011;56489;53.166;10.864;2022-09-25T16:09:57;3.30;;;3.00;;
14961;SDS011;56489;53.166;10.864;2022-09-25T16:12:29;4.68;;;2.75;;
14961;SDS011;56489;53.166;10.864;2022-09-25T16:14:58;3.05;;;2.85;;
14961;SDS011;56489;53.166;10.864;2022-09-25T16:17:49;4.03;;;3.15;;
14961;SDS011;56489;53.166;10.864;2022-09-25T16:22:49;3.72;;;3.13;;
14961;SDS011;56489;53.166;10.864;2022-09-25T16:25:23;2.55;;;2.20;;
14961;SDS011;56489;53.166;10.864;2022-09-25T16:28:16;3.25;;;2.50;;
14961;SDS011;56489;53.166;10.864;2022-09-25T16:30:46;4.47;;;2.55;;
14961;SDS011;56489;53.166;10.864;2022-09-25T16:33:25;2.67;;;2.47;;
14961;SDS011;56489;53.166;10.864;2022-09-25T16:36:00;3.38;;;2.50;;
14961;SDS011;56489;53.166;10.864;2022-09-25T16:38:42;3.50;;;2.53;;
14961;SDS011;56489;53.166;10.864;2022-09-25T16:41:29;5.85;;;2.90;;
14961;SDS011;56489;53.166;10.864;2022-09-25T16:44:04;3.05;;;2.38;;
14961;SDS011;56489;53.166;10.864;2022-09-25T16:46:45;4.07;;;3.55;;